Shamrock, Texas
Current Conditions -  °F | °C
As of 2:15 PM on Thursday 23 Oct 2014 (Local Time) from KHHF Reporting Station
Scattered Clouds Scattered Clouds  
Wind Chill: 26°   Ceiling: Unl
Heat Index: 26°   Visibility: 10mi
Dew Point: 16°   Wind: 9mph
Humidity: 56%   Direction: 170°S
Pressure: 30.05"   Gusts: NA
Location:  35.21°N, 100.25°W
Report Text: KHHF 231915Z AUTO 17008KT 10SM SCT039 26/16 A3005 RMK AO2 T02560163
Loading
Personal Weather Stations






























Interactive Weather Map
Tropical Storm Tracking
New forecast layout! Learn more

10-Day Weather Forecast

Advertisements
Track Severe Weather on mobile